createdAt,value
2017-04-06T00:00:38.723Z,86.19
2017-04-06T00:01:24.129Z,85.72
2017-04-06T00:02:24.150Z,86.67
2017-04-06T00:03:24.163Z,86.47
2017-04-06T00:04:23.883Z,86.1
2017-04-06T00:05:24.208Z,85.86
2017-04-06T00:06:24.224Z,86.1
2017-04-06T00:07:24.242Z,86.19
2017-04-06T00:08:24.263Z,85.53
2017-04-06T00:09:24.280Z,86.29
2017-04-06T00:10:24.301Z,86.38
2017-04-06T00:14:24.380Z,86.53
2017-04-06T00:15:24.399Z,86.24
2017-04-06T00:16:24.417Z,86.72
2017-04-06T00:17:24.437Z,87.19
2017-04-06T00:18:24.480Z,87.01
2017-04-06T00:19:24.477Z,87.29
2017-04-06T00:20:24.494Z,86.91
2017-04-06T00:21:24.514Z,86.91
2017-04-06T00:22:24.537Z,87.29
2017-04-06T00:23:24.552Z,87.01
2017-04-06T00:24:24.575Z,86.91
2017-04-06T00:25:24.286Z,87.1
2017-04-06T00:27:24.632Z,87.57
2017-04-06T00:28:24.650Z,87.01
2017-04-06T00:29:24.671Z,86.72
2017-04-06T00:30:24.688Z,87.38
2017-04-06T00:31:24.708Z,86.15
2017-04-06T00:32:39.343Z,86.63
2017-04-06T00:33:24.746Z,86.24
2017-04-06T00:34:24.768Z,87.29
2017-04-06T00:35:24.783Z,86.34
2017-04-06T00:36:24.807Z,86.72
2017-04-06T00:37:24.823Z,86.15
2017-04-06T00:38:24.845Z,86.53
2017-04-06T00:39:24.863Z,86.34
2017-04-06T00:40:24.880Z,86.24
2017-04-06T00:41:24.903Z,86.05
2017-04-06T00:42:24.923Z,86.05
2017-04-06T00:43:24.939Z,85.96
2017-04-06T00:44:24.961Z,86.43
2017-04-06T00:45:24.979Z,86.34
2017-04-06T00:46:24.998Z,86.43
2017-04-06T00:47:25.016Z,86.43
2017-04-06T00:48:39.651Z,87.19
2017-04-06T00:49:25.056Z,86.24
2017-04-06T00:50:24.771Z,86.43
2017-04-06T00:51:25.094Z,86.63
2017-04-06T00:52:25.114Z,87.19
2017-04-06T00:53:25.132Z,86.91
2017-04-06T00:54:25.152Z,87.01
2017-04-06T00:55:25.171Z,87.01
2017-04-06T00:56:25.192Z,87.48
2017-04-06T00:57:25.206Z,87.57
2017-04-06T00:58:25.228Z,88.15
2017-04-06T01:00:25.265Z,87.95
2017-04-06T01:01:25.286Z,87.86
2017-04-06T01:02:25.305Z,87.95
2017-04-06T01:03:25.323Z,88.05
2017-04-06T01:04:39.957Z,88.43
2017-04-06T01:05:25.362Z,88.15
2017-04-06T01:06:25.380Z,88.15
2017-04-06T01:07:25.404Z,88.43
2017-04-06T01:08:25.419Z,88.15
2017-04-06T01:09:25.437Z,88.05
2017-04-06T01:10:25.458Z,87.95
2017-04-06T01:11:25.476Z,88.15
2017-04-06T01:12:25.501Z,87.48
2017-04-06T01:13:25.515Z,87.19
2017-04-06T01:14:25.229Z,87.67
2017-04-06T01:15:25.255Z,87.95
2017-04-06T01:16:25.270Z,88.15
2017-04-06T01:17:25.593Z,87.57
2017-04-06T01:18:25.615Z,87.67
2017-04-06T01:19:25.630Z,87.95
2017-04-06T01:20:40.264Z,87.95
2017-04-06T01:21:25.669Z,88
2017-04-06T01:22:25.687Z,88.05
2017-04-06T01:23:25.405Z,88.05
2017-04-06T01:24:25.725Z,88.53
2017-04-06T01:25:25.743Z,88.43
2017-04-06T01:26:25.768Z,88.43
2017-04-06T01:27:25.784Z,88.05
2017-04-06T01:28:25.801Z,88.53
2017-04-06T01:29:25.822Z,88.53
2017-04-06T01:30:25.839Z,89.09
2017-04-06T01:31:25.857Z,89.09
2017-04-06T01:33:25.900Z,88.15
2017-04-06T01:34:25.917Z,88.53
2017-04-06T01:35:40.552Z,88.05
2017-04-06T01:36:25.958Z,88.24
2017-04-06T01:37:25.976Z,88.71
2017-04-06T01:38:25.994Z,88.15
2017-04-06T01:39:26.013Z,88.15
2017-04-06T01:40:26.034Z,88.24
2017-04-06T01:41:26.049Z,88.24
2017-04-06T01:42:26.071Z,88.71
2017-04-06T01:43:26.088Z,89.09
2017-04-06T01:44:26.109Z,89.09
2017-04-06T01:46:26.149Z,89
2017-04-06T01:47:26.166Z,89.38
2017-04-06T01:48:26.188Z,89.38
2017-04-06T01:49:26.204Z,89.38
2017-04-06T01:50:26.222Z,90.05
2017-04-06T01:51:26.244Z,89.86
2017-04-06T01:52:25.958Z,90.33
2017-04-06T01:53:26.288Z,90.52
2017-04-06T01:54:26.299Z,89.38
2017-04-06T01:55:26.318Z,89.86
2017-04-06T01:56:26.339Z,89.86
2017-04-06T01:57:26.358Z,89.86
2017-04-06T01:58:26.378Z,90.38
2017-04-06T01:59:26.394Z,90.19
2017-04-06T02:00:26.412Z,90.09
2017-04-06T02:01:26.434Z,90.28
2017-04-06T02:03:26.472Z,90.57
2017-04-06T02:04:26.490Z,90.76
2017-04-06T02:05:26.508Z,90.47
2017-04-06T02:06:26.527Z,90.57
2017-04-06T02:07:41.163Z,90.76
2017-04-06T02:08:26.565Z,90.76
2017-04-06T02:09:26.585Z,91.24
2017-04-06T02:10:26.603Z,90.95
2017-04-06T02:11:26.626Z,91.42
2017-04-06T02:12:26.645Z,91.04
2017-04-06T02:13:26.662Z,91.89
2017-04-06T02:14:26.679Z,91.71
2017-04-06T02:15:26.699Z,91.71
2017-04-06T02:16:26.719Z,92.18
2017-04-06T02:17:26.736Z,91.71
2017-04-06T02:18:26.760Z,92.37
2017-04-06T02:19:26.772Z,92.47
2017-04-06T02:20:26.794Z,92.47
2017-04-06T02:21:26.814Z,92.47
2017-04-06T02:22:26.832Z,92.28
2017-04-06T02:23:41.464Z,92.47
2017-04-06T02:24:26.868Z,92.66
2017-04-06T02:25:26.885Z,92.37
2017-04-06T02:26:26.904Z,92.37
2017-04-06T02:27:26.923Z,92.18
2017-04-06T02:28:26.942Z,92.56
2017-04-06T02:29:26.961Z,92.47
2017-04-06T02:30:26.987Z,92.47
2017-04-06T02:31:27.012Z,92.47
2017-04-06T02:32:27.018Z,92.94
2017-04-06T02:34:27.058Z,92.85
2017-04-06T02:36:27.094Z,92.94
2017-04-06T02:37:27.113Z,92.75
2017-04-06T02:38:27.131Z,92.85
2017-04-06T02:39:41.764Z,93.04
2017-04-06T02:40:27.173Z,92.75
2017-04-06T02:41:27.188Z,93.23
2017-04-06T02:42:27.207Z,92.94
2017-04-06T02:43:27.224Z,93.08
2017-04-06T02:44:27.241Z,93.13
2017-04-06T02:45:27.261Z,93.41
2017-04-06T02:46:27.282Z,93.32
2017-04-06T02:47:27.299Z,93.51
2017-04-06T02:48:27.316Z,93.08
2017-04-06T02:49:27.336Z,92.85
2017-04-06T02:50:27.354Z,92.94
2017-04-06T02:53:27.412Z,93.18
2017-04-06T02:54:27.428Z,93.18
2017-04-06T02:55:42.062Z,92.99
2017-04-06T02:56:27.467Z,93.65
2017-04-06T02:57:27.485Z,93.46
2017-04-06T02:58:27.204Z,93.56
2017-04-06T02:59:27.523Z,92.9
2017-04-06T03:00:27.543Z,93.08
2017-04-06T03:01:27.559Z,93.18
2017-04-06T03:02:27.577Z,92.99
2017-04-06T03:03:27.597Z,93.65
2017-04-06T03:04:27.614Z,93.37
2017-04-06T03:06:27.651Z,92.99
2017-04-06T03:07:27.676Z,92.9
2017-04-06T03:08:27.691Z,93.08
2017-04-06T03:09:27.709Z,92.9
2017-04-06T03:10:42.343Z,92.8
2017-04-06T03:11:27.747Z,92.71
2017-04-06T03:12:27.766Z,92.8
2017-04-06T03:13:27.787Z,93.08
2017-04-06T03:14:27.496Z,93.27
2017-04-06T03:15:27.821Z,92.61
2017-04-06T03:16:27.840Z,92.99
2017-04-06T03:17:27.861Z,92.61
2017-04-06T03:18:27.876Z,92.14
2017-04-06T03:19:27.893Z,92.42
2017-04-06T03:20:27.912Z,92.23
2017-04-06T03:22:27.950Z,92.61
2017-04-06T03:23:27.973Z,92.42
2017-04-06T03:24:27.986Z,92.61
2017-04-06T03:25:28.007Z,92.42
2017-04-06T03:26:28.026Z,92.04
2017-04-06T03:27:28.042Z,92.42
2017-04-06T03:28:28.059Z,92.14
2017-04-06T03:29:28.083Z,91.94
2017-04-06T03:30:28.097Z,91.85
2017-04-06T03:31:28.116Z,92.04
2017-04-06T03:32:28.137Z,92.33
2017-04-06T03:33:28.151Z,92.04
2017-04-06T03:34:28.170Z,91.75
2017-04-06T03:35:28.189Z,91.47
2017-04-06T03:36:28.210Z,91.85
2017-04-06T03:37:28.228Z,91.75
2017-04-06T03:39:28.264Z,91.85
2017-04-06T03:40:28.282Z,91.94
2017-04-06T03:41:28.301Z,91.94
2017-04-06T03:42:42.934Z,91.94
2017-04-06T03:43:28.338Z,91.66
2017-04-06T03:44:28.358Z,91.85
2017-04-06T03:45:28.374Z,91.38
2017-04-06T03:46:28.395Z,91.75
2017-04-06T03:47:28.412Z,91.85
2017-04-06T03:48:28.429Z,91.56
2017-04-06T03:49:28.474Z,91.75
2017-04-06T03:50:28.469Z,91.56
2017-04-06T03:52:28.502Z,90.85
2017-04-06T03:54:28.539Z,90.85
2017-04-06T03:56:28.578Z,90.09
2017-04-06T03:57:28.599Z,90.38
2017-04-06T03:58:43.231Z,89.72
2017-04-06T03:59:28.633Z,89.9
2017-04-06T04:00:28.654Z,89.53
2017-04-06T04:01:28.670Z,89.53
2017-04-06T04:02:28.690Z,88.95
2017-04-06T04:03:28.708Z,88.76
2017-04-06T04:04:28.723Z,88.95
2017-04-06T04:05:28.744Z,88.95
2017-04-06T04:06:28.762Z,88.76
2017-04-06T04:07:28.779Z,89.05
2017-04-06T04:08:28.805Z,88.57
2017-04-06T04:09:28.823Z,88.39
2017-04-06T04:11:28.855Z,88.1
2017-04-06T04:12:28.876Z,88.2
2017-04-06T04:13:28.892Z,88.39
2017-04-06T04:14:43.526Z,88.29
2017-04-06T04:15:28.931Z,88.1
2017-04-06T04:16:28.950Z,88.48
2017-04-06T04:17:28.966Z,88.39
2017-04-06T04:18:28.984Z,88.1
2017-04-06T04:19:29.004Z,88.01
2017-04-06T04:20:29.028Z,88.57
2017-04-06T04:21:29.040Z,88.67
2017-04-06T04:23:29.076Z,88.95
2017-04-06T04:24:28.794Z,88.95
2017-04-06T04:25:29.113Z,89.33
2017-04-06T04:26:29.135Z,89.14
2017-04-06T04:27:29.156Z,88.95
2017-04-06T04:28:29.203Z,89.43
2017-04-06T04:29:29.191Z,89.53
2017-04-06T04:30:43.823Z,89.43
2017-04-06T04:31:29.226Z,89.24
2017-04-06T04:32:29.246Z,89.14
2017-04-06T04:33:29.263Z,89.43
2017-04-06T04:34:29.282Z,89.24
2017-04-06T04:35:29.302Z,88.76
2017-04-06T04:36:29.317Z,88.76
2017-04-06T04:37:29.339Z,88.86
2017-04-06T04:38:29.354Z,88.48
2017-04-06T04:39:29.376Z,88.1
2017-04-06T04:40:29.391Z,87.91
2017-04-06T04:43:29.449Z,87.34
2017-04-06T04:44:29.475Z,87.43
2017-04-06T04:45:44.102Z,87.82
2017-04-06T04:46:29.510Z,87.43
2017-04-06T04:47:29.523Z,87.34
2017-04-06T04:48:29.543Z,86.77
2017-04-06T04:49:29.560Z,87.15
2017-04-06T04:50:29.586Z,87.43
2017-04-06T04:51:29.601Z,86.34
2017-04-06T04:52:29.618Z,86.49
2017-04-06T04:53:29.634Z,86.3
2017-04-06T04:54:29.348Z,86.68
2017-04-06T04:55:29.672Z,86.2
2017-04-06T04:57:29.711Z,86.58
2017-04-06T04:59:29.745Z,86.49
2017-04-06T05:00:29.766Z,86.53
2017-04-06T05:01:29.787Z,86.39
2017-04-06T05:02:29.803Z,86.3
2017-04-06T05:03:29.822Z,86.2
2017-04-06T05:04:29.839Z,86.2
2017-04-06T05:05:29.860Z,86.58
2017-04-06T05:06:29.878Z,86.43
2017-04-06T05:07:29.895Z,85.86
2017-04-06T05:08:29.919Z,85.68
2017-04-06T05:09:29.931Z,85.11
2017-04-06T05:10:29.952Z,85.2
2017-04-06T05:11:29.977Z,85.11
2017-04-06T05:15:30.044Z,84.91
2017-04-06T05:16:30.065Z,85.01
2017-04-06T05:17:44.699Z,84.16
2017-04-06T05:18:30.105Z,83.91
2017-04-06T05:19:29.829Z,82.71
2017-04-06T05:20:30.144Z,82.2
2017-04-06T05:21:30.161Z,82.58
2017-04-06T05:22:30.184Z,82.68
2017-04-06T05:23:30.201Z,82.77
2017-04-06T05:24:30.219Z,82.58
2017-04-06T05:25:30.290Z,82.96
2017-04-06T05:26:30.260Z,83.2
2017-04-06T05:27:30.281Z,84.06
2017-04-06T05:28:30.301Z,84.63
2017-04-06T05:29:30.321Z,84.53
2017-04-06T05:30:30.344Z,84.72
2017-04-06T05:31:30.368Z,85.3
2017-04-06T05:32:30.077Z,85.11
2017-04-06T05:33:45.017Z,86.05
2017-04-06T05:34:30.422Z,85.49
2017-04-06T05:35:30.443Z,85.86
2017-04-06T05:36:30.461Z,85.68
2017-04-06T05:37:30.481Z,85.58
2017-04-06T05:38:30.506Z,85.49
2017-04-06T05:39:30.522Z,85.68
2017-04-06T05:40:30.539Z,84.91
2017-04-06T05:41:30.561Z,84.72
2017-04-06T05:42:30.580Z,84.29
2017-04-06T05:43:30.601Z,83.06
2017-04-06T05:45:30.642Z,82.87
2017-04-06T05:46:30.667Z,82.39
2017-04-06T05:47:30.686Z,82.05
2017-04-06T05:48:30.705Z,81.2
2017-04-06T05:49:45.344Z,80.72
2017-04-06T05:50:30.751Z,80.29
2017-04-06T05:51:30.776Z,78.77
2017-04-06T05:52:30.794Z,78.67
2017-04-06T05:53:30.813Z,78.1
2017-04-06T05:54:30.838Z,77.34
2017-04-06T05:55:30.860Z,77
2017-04-06T05:56:31.388Z,76.9
2017-04-06T05:58:30.929Z,76.42
2017-04-06T06:00:30.977Z,74.9
2017-04-06T06:01:31.006Z,75.57
2017-04-06T06:02:31.029Z,74.62
2017-04-06T06:03:31.050Z,74.71
2017-04-06T06:04:31.076Z,74.27
2017-04-06T06:05:45.716Z,73.51
2017-04-06T06:06:31.124Z,73.41
2017-04-06T06:07:31.150Z,73.41
2017-04-06T06:08:31.175Z,73.41
2017-04-06T06:09:31.199Z,72.56
2017-04-06T06:10:31.226Z,72.85
2017-04-06T06:11:31.252Z,71.83
2017-04-06T06:12:31.276Z,70.59
2017-04-06T06:14:31.328Z,70.4
2017-04-06T06:15:31.354Z,70.59
2017-04-06T06:17:31.407Z,71.07
2017-04-06T06:18:31.433Z,70.4
2017-04-06T06:19:31.458Z,70.65
2017-04-06T06:20:46.104Z,71.07
2017-04-06T06:21:31.513Z,71.13
2017-04-06T06:22:31.541Z,72.9
2017-04-06T06:23:31.566Z,73
2017-04-06T06:24:31.593Z,73.47
2017-04-06T06:25:31.619Z,73.28
2017-04-06T06:26:31.647Z,72.81
2017-04-06T06:27:31.672Z,72.46
2017-04-06T06:28:31.699Z,72.27
2017-04-06T06:29:31.728Z,71.42
2017-04-06T06:30:31.755Z,71.8
2017-04-06T06:31:31.782Z,72.17
2017-04-06T06:32:31.809Z,72.27
2017-04-06T06:33:31.839Z,70.88
2017-04-06T06:34:31.874Z,70.21
2017-04-06T06:35:31.901Z,70.56
2017-04-06T06:36:31.920Z,70.59
2017-04-06T06:37:31.953Z,69.83
2017-04-06T06:38:31.978Z,68.53
2017-04-06T06:39:32.007Z,67.71
2017-04-06T06:40:32.037Z,67.52
2017-04-06T06:41:32.066Z,66.66
2017-04-06T06:42:46.710Z,67.52
2017-04-06T06:43:31.818Z,67.33
2017-04-06T06:44:31.849Z,66.66
2017-04-06T06:45:32.179Z,65.8
2017-04-06T06:46:31.905Z,65.64
2017-04-06T06:47:31.935Z,65.07
2017-04-06T06:50:32.326Z,65.61
2017-04-06T06:51:32.359Z,65.8
2017-04-06T06:52:47.003Z,65.99
2017-04-06T06:53:32.414Z,66.18
2017-04-06T06:54:32.450Z,66.09
2017-04-06T06:55:32.471Z,65.23
2017-04-06T06:56:32.504Z,65.23
2017-04-06T06:57:32.535Z,64.12
2017-04-06T06:58:32.563Z,64.12
2017-04-06T06:59:32.593Z,64.5
2017-04-06T07:00:32.623Z,64.12
2017-04-06T07:01:32.651Z,62.97
2017-04-06T07:03:32.711Z,62.43
2017-04-06T07:04:32.741Z,62.24
2017-04-06T07:05:32.773Z,62.15
2017-04-06T07:06:32.801Z,62.24
2017-04-06T07:07:32.530Z,61.47
2017-04-06T07:08:47.481Z,60.46
2017-04-06T07:09:32.895Z,61.47
2017-04-06T07:10:32.925Z,61.57
2017-04-06T07:11:32.958Z,62.24
2017-04-06T07:12:32.986Z,61.86
2017-04-06T07:13:33.027Z,60.07
2017-04-06T07:14:33.048Z,60.55
2017-04-06T07:15:33.079Z,61.57
2017-04-06T07:16:33.122Z,62.59
2017-04-06T07:17:33.156Z,62.05
2017-04-06T07:18:33.182Z,61.95
2017-04-06T07:20:33.242Z,60.42
2017-04-06T07:22:33.301Z,60.9
2017-04-06T07:23:33.333Z,60.74
2017-04-06T07:24:47.982Z,61.76
2017-04-06T07:25:33.394Z,61.92
2017-04-06T07:26:33.431Z,63.26
2017-04-06T07:27:33.456Z,62.97
2017-04-06T07:28:33.489Z,61.95
2017-04-06T07:29:33.521Z,61.47
2017-04-06T07:30:33.551Z,61.76
2017-04-06T07:31:33.584Z,61.38
2017-04-06T07:32:33.615Z,60.27
2017-04-06T07:33:33.645Z,60.14
2017-04-06T07:34:33.678Z,61.44
2017-04-06T07:35:34.059Z,62.02
2017-04-06T07:36:33.741Z,62.02
2017-04-06T07:38:33.810Z,60.27
2017-04-06T07:39:33.832Z,61.38
2017-04-06T07:40:48.484Z,61
2017-04-06T07:41:33.896Z,60.27
2017-04-06T07:42:33.928Z,60.17
2017-04-06T07:43:33.960Z,60.42
2017-04-06T07:44:33.989Z,60.42
2017-04-06T07:45:34.020Z,60.52
2017-04-06T07:46:34.050Z,61.54
2017-04-06T07:47:34.084Z,62.21
2017-04-06T07:48:34.115Z,61.92
2017-04-06T07:49:34.146Z,60.9
2017-04-06T07:50:34.175Z,60.17
2017-04-06T07:51:34.206Z,59.59
2017-04-06T07:52:34.243Z,59.05
2017-04-06T07:53:34.268Z,58.83
2017-04-06T07:54:34.299Z,58.67
2017-04-06T07:55:48.948Z,57.71
2017-04-06T07:56:34.362Z,57.07
2017-04-06T07:57:34.392Z,57.17
2017-04-06T07:58:34.422Z,57.2
2017-04-06T07:59:34.455Z,54.71
2017-04-06T08:00:34.488Z,54.33
2017-04-06T08:01:34.518Z,54.61
2017-04-06T08:02:34.548Z,54.26
2017-04-06T08:03:34.578Z,53.69
2017-04-06T08:04:34.612Z,54.07
2017-04-06T08:05:34.640Z,53.88
2017-04-06T08:06:34.670Z,53.42
2017-04-06T08:08:34.738Z,52.85
2017-04-06T08:09:34.762Z,53.04
2017-04-06T08:10:34.795Z,53.11
2017-04-06T08:11:34.824Z,53.3
2017-04-06T08:12:34.554Z,53.59
2017-04-06T08:13:34.887Z,53.4
2017-04-06T08:14:34.921Z,53.49
2017-04-06T08:15:34.949Z,53.11
2017-04-06T08:16:34.981Z,53.11
2017-04-06T08:17:34.708Z,52.54
2017-04-06T08:18:35.044Z,53.37
2017-04-06T08:20:35.103Z,53.66
2017-04-06T08:21:34.835Z,53.75
2017-04-06T08:22:34.861Z,54.68
2017-04-06T08:24:35.228Z,55.64
2017-04-06T08:25:34.953Z,54.97
2017-04-06T08:26:35.286Z,54.52
2017-04-06T08:27:49.934Z,53.49
2017-04-06T08:28:35.348Z,52.56
2017-04-06T08:29:35.376Z,53.37
2017-04-06T08:30:35.408Z,53.18
2017-04-06T08:31:35.451Z,53.28
2017-04-06T08:32:35.483Z,53.56
2017-04-06T08:33:35.510Z,53.47
2017-04-06T08:35:35.568Z,53.4
2017-04-06T08:36:35.590Z,52.34
2017-04-06T08:37:35.618Z,51.89
2017-04-06T08:38:35.668Z,51.48
2017-04-06T08:39:35.690Z,51.1
2017-04-06T08:40:35.711Z,51.68
2017-04-06T08:42:35.770Z,50.62
2017-04-06T08:43:50.417Z,50.43
2017-04-06T08:44:35.829Z,50.34
2017-04-06T08:45:35.858Z,50.52
2017-04-06T08:46:35.886Z,50.07
2017-04-06T08:47:35.917Z,49.98
2017-04-06T08:48:35.957Z,49.31
2017-04-06T08:49:35.980Z,49.86
2017-04-06T08:50:35.703Z,50.15
2017-04-06T08:51:36.037Z,50.34
2017-04-06T08:52:36.066Z,51.07
2017-04-06T08:53:36.093Z,51.65
2017-04-06T08:54:36.127Z,51.93
2017-04-06T08:55:36.155Z,52.42
2017-04-06T08:57:36.214Z,52.58
2017-04-06T08:58:36.243Z,52.48
2017-04-06T08:59:50.889Z,52.58
2017-04-06T09:00:36.301Z,52.48
2017-04-06T09:01:36.329Z,52.77
2017-04-06T09:02:36.359Z,52.1
2017-04-06T09:03:36.388Z,51.65
2017-04-06T09:04:36.422Z,52.01
2017-04-06T09:05:36.447Z,51.07
2017-04-06T09:06:36.477Z,50.15
2017-04-06T09:07:36.534Z,49.57
2017-04-06T09:08:36.529Z,49.48
2017-04-06T09:09:36.562Z,48.64
2017-04-06T09:12:36.648Z,49.76
2017-04-06T09:13:36.673Z,49.4
2017-04-06T09:14:36.706Z,50.05
2017-04-06T09:15:51.349Z,49.95
2017-04-06T09:16:36.763Z,49.95
2017-04-06T09:17:36.789Z,50.91
2017-04-06T09:18:36.818Z,49.95
2017-04-06T09:19:36.846Z,49.69
2017-04-06T09:20:36.876Z,49.5
2017-04-06T09:21:36.901Z,49.02
2017-04-06T09:22:36.930Z,49.48
2017-04-06T09:23:36.961Z,48.9
2017-04-06T09:24:36.989Z,49.6
2017-04-06T09:27:37.075Z,49.19
2017-04-06T09:28:37.104Z,49.57
2017-04-06T09:29:36.827Z,49.66
2017-04-06T09:30:51.776Z,49.93
2017-04-06T09:31:37.187Z,49.48
2017-04-06T09:32:37.215Z,49.66
2017-04-06T09:33:37.247Z,49.09
2017-04-06T09:34:37.274Z,48.9
2017-04-06T09:35:37.302Z,48.07
2017-04-06T09:36:37.326Z,47.58
2017-04-06T09:37:37.358Z,47.47
2017-04-06T09:38:37.080Z,47.66
2017-04-06T09:39:37.412Z,48.13
2017-04-06T09:41:37.474Z,49.8
2017-04-06T09:42:37.500Z,50.38
2017-04-06T09:43:37.526Z,50.09
2017-04-06T09:44:37.551Z,49.8
2017-04-06T09:45:37.580Z,49.45
2017-04-06T09:46:37.607Z,49.74
2017-04-06T09:47:37.636Z,49.35
2017-04-06T09:48:37.662Z,48.9
2017-04-06T09:49:37.688Z,47.58
2017-04-06T09:50:37.716Z,47.87
2017-04-06T09:51:37.743Z,47.22
2017-04-06T09:52:37.772Z,46.17
2017-04-06T09:53:37.799Z,46.94
2017-04-06T09:54:37.826Z,46.72
2017-04-06T09:55:37.853Z,46.46
2017-04-06T09:56:37.881Z,45.86
2017-04-06T09:57:37.909Z,44.73
2017-04-06T09:59:37.660Z,45.21
2017-04-06T10:00:37.990Z,46.41
2017-04-06T10:01:38.019Z,46.61
2017-04-06T10:02:52.664Z,46.82
2017-04-06T10:03:38.072Z,46.31
2017-04-06T10:04:38.105Z,44.69
2017-04-06T10:05:38.128Z,44.62
2017-04-06T10:06:38.154Z,44.52
2017-04-06T10:07:38.182Z,43.3
2017-04-06T10:08:39.061Z,42.05
2017-04-06T10:09:38.243Z,42.82
2017-04-06T10:11:38.291Z,42.24
2017-04-06T10:12:38.016Z,43.18
2017-04-06T10:14:38.374Z,45.67
2017-04-06T10:16:38.428Z,45.21
2017-04-06T10:17:38.454Z,44.06
2017-04-06T10:18:53.099Z,44.35
2017-04-06T10:19:38.510Z,44.83
2017-04-06T10:20:38.536Z,44.06
2017-04-06T10:21:38.562Z,43.2
2017-04-06T10:22:38.590Z,44.26
2017-04-06T10:23:38.615Z,43.59
2017-04-06T10:24:38.642Z,43.01
2017-04-06T10:25:38.671Z,42.8
2017-04-06T10:26:38.396Z,43.26
2017-04-06T10:27:38.724Z,43.83
2017-04-06T10:28:38.448Z,43.73
2017-04-06T10:29:38.781Z,45.38
2017-04-06T10:30:38.806Z,44.26
2017-04-06T10:31:38.832Z,44.16
2017-04-06T10:32:38.858Z,44.71
2017-04-06T10:33:38.888Z,45.29
2017-04-06T10:34:53.529Z,45.91
2017-04-06T10:35:38.940Z,46.77
2017-04-06T10:36:38.968Z,47.25
2017-04-06T10:37:38.993Z,48.18
2017-04-06T10:38:39.019Z,49.14
2017-04-06T10:39:39.044Z,49.43
2017-04-06T10:40:39.073Z,48.85
2017-04-06T10:41:39.096Z,49.04
2017-04-06T10:42:39.123Z,49.49
2017-04-06T10:43:39.148Z,49.3
2017-04-06T10:44:39.175Z,48.38
2017-04-06T10:45:39.208Z,48.09
2017-04-06T10:46:39.226Z,48.09
2017-04-06T10:47:39.257Z,48.47
2017-04-06T10:48:38.973Z,47.73
2017-04-06T10:49:39.302Z,48.39
2017-04-06T10:50:53.949Z,48.49
2017-04-06T10:51:39.053Z,49.64
2017-04-06T10:52:39.378Z,49.23
2017-04-06T10:53:39.403Z,49.52
2017-04-06T10:54:39.431Z,49.59
2017-04-06T10:55:39.454Z,49.59
2017-04-06T10:56:39.176Z,49.14
2017-04-06T10:57:39.508Z,48.09
2017-04-06T10:58:39.529Z,48.18
2017-04-06T10:59:39.556Z,47.99
2017-04-06T11:00:39.277Z,47.8
2017-04-06T11:02:39.632Z,48.93
2017-04-06T11:03:39.657Z,49.49
2017-04-06T11:04:39.681Z,49.59
2017-04-06T11:05:54.323Z,49.4
2017-04-06T11:06:39.732Z,49.59
2017-04-06T11:07:39.755Z,47.97
2017-04-06T11:08:39.780Z,47.8
2017-04-06T11:09:39.808Z,47.3
2017-04-06T11:10:39.881Z,48.64
2017-04-06T11:11:39.855Z,49.4
2017-04-06T11:12:39.879Z,49.49
2017-04-06T11:13:39.906Z,50.24
2017-04-06T11:14:39.626Z,49.76
2017-04-06T11:15:39.954Z,50.14
2017-04-06T11:17:39.712Z,49.4
2017-04-06T11:18:39.725Z,49.49
2017-04-06T11:19:40.061Z,47.13
2017-04-06T11:20:40.079Z,45.48
2017-04-06T11:21:40.103Z,44.24
2017-04-06T11:22:40.126Z,43.93
2017-04-06T11:23:40.149Z,43.07
2017-04-06T11:24:40.176Z,43.82
2017-04-06T11:25:40.199Z,43.91
2017-04-06T11:26:40.225Z,43.82
2017-04-06T11:27:40.248Z,43.36
2017-04-06T11:28:40.274Z,44.12
2017-04-06T11:29:40.295Z,45.27
2017-04-06T11:30:40.319Z,45.94
2017-04-06T11:32:40.370Z,46.34
2017-04-06T11:33:40.394Z,46.15
2017-04-06T11:34:40.418Z,47.23
2017-04-06T11:35:40.444Z,46.82
2017-04-06T11:36:40.468Z,46.82
2017-04-06T11:37:55.106Z,45.87
2017-04-06T11:38:40.514Z,43.86
2017-04-06T11:39:40.539Z,42.24
2017-04-06T11:40:40.562Z,42.61
2017-04-06T11:41:40.589Z,41.85
2017-04-06T11:42:40.621Z,41.85
2017-04-06T11:43:40.636Z,41.18
2017-04-06T11:44:40.658Z,41.74
2017-04-06T11:45:40.684Z,42.02
2017-04-06T11:46:40.708Z,41.66
2017-04-06T11:47:40.428Z,40.52
2017-04-06T11:48:40.754Z,41.66
2017-04-06T11:50:40.808Z,41.49
2017-04-06T11:52:40.851Z,41.78
2017-04-06T11:53:55.494Z,41.68
2017-04-06T11:54:40.908Z,41.49
2017-04-06T11:55:40.926Z,41.11
2017-04-06T11:56:40.949Z,40.63
2017-04-06T11:57:40.973Z,40.32
2017-04-06T11:58:40.997Z,40.23
2017-04-06T11:59:41.020Z,40.42
2017-04-06T12:00:41.061Z,40.32
2017-04-06T12:01:41.070Z,40.52
2017-04-06T12:02:41.096Z,40.7
2017-04-06T12:03:40.814Z,41.47
2017-04-06T12:05:41.167Z,42.24
2017-04-06T12:06:41.190Z,42.9
2017-04-06T12:07:41.217Z,43.19
2017-04-06T12:08:41.241Z,42.83
2017-04-06T12:09:55.879Z,42.93
2017-04-06T12:10:41.293Z,43.12
2017-04-06T12:11:41.310Z,41.97
2017-04-06T12:12:41.335Z,42.73
2017-04-06T12:13:41.358Z,42.83
2017-04-06T12:14:41.386Z,42.83
2017-04-06T12:15:41.407Z,42.25
2017-04-06T12:16:41.532Z,42.83
2017-04-06T12:17:41.454Z,43.02
2017-04-06T12:18:41.175Z,42.93
2017-04-06T12:19:41.505Z,43.02
2017-04-06T12:20:41.526Z,41.7
2017-04-06T12:21:41.554Z,41.39
2017-04-06T12:22:41.586Z,41.49
2017-04-06T12:23:41.600Z,40.84
2017-04-06T12:24:41.623Z,40.48
2017-04-06T12:25:56.264Z,39.33
2017-04-06T12:26:41.367Z,39.52
2017-04-06T12:27:41.697Z,39.81
2017-04-06T12:28:41.418Z,39.62
2017-04-06T12:29:41.750Z,38.95
2017-04-06T12:30:41.771Z,38.66
2017-04-06T12:31:41.794Z,38.66
2017-04-06T12:32:41.815Z,38.66
2017-04-06T12:33:41.588Z,39.04
2017-04-06T12:34:41.865Z,39.22
2017-04-06T12:36:41.918Z,39.33
2017-04-06T12:37:41.939Z,40.09
2017-04-06T12:38:41.664Z,38.95
2017-04-06T12:39:41.990Z,38.54
2017-04-06T12:40:56.631Z,38.83
2017-04-06T12:41:42.053Z,38.74
2017-04-06T12:42:41.756Z,39.22
2017-04-06T12:43:42.102Z,39.12
2017-04-06T12:44:42.107Z,39.43
2017-04-06T12:45:42.986Z,39.52
2017-04-06T12:46:42.156Z,38.95
2017-04-06T12:47:42.182Z,38.85
2017-04-06T12:48:42.205Z,39.04
2017-04-06T12:49:42.230Z,39.43
2017-04-06T12:50:42.254Z,39.35
2017-04-06T12:52:42.308Z,39.37
2017-04-06T12:53:42.325Z,38.79
2017-04-06T12:54:42.354Z,38.98
2017-04-06T12:55:42.376Z,38.87
2017-04-06T12:56:42.408Z,38.78
2017-04-06T12:57:42.423Z,38.56
2017-04-06T12:58:42.449Z,39.14
2017-04-06T12:59:42.170Z,39.5
2017-04-06T13:00:42.498Z,39.12
2017-04-06T13:01:42.522Z,39.77
2017-04-06T13:02:42.547Z,40.06
2017-04-06T13:03:42.574Z,39.39
2017-04-06T13:04:42.595Z,39.67
2017-04-06T13:05:42.626Z,40.17
2017-04-06T13:06:42.648Z,40.84
2017-04-06T13:07:42.679Z,39.33
2017-04-06T13:08:42.692Z,40.09
2017-04-06T13:09:43.068Z,40
2017-04-06T13:10:42.740Z,40.29
2017-04-06T13:11:42.768Z,40.41
2017-04-06T13:12:57.656Z,39.35
2017-04-06T13:13:42.814Z,38.96
2017-04-06T13:14:42.839Z,38.87
2017-04-06T13:15:42.863Z,38.59
2017-04-06T13:16:42.888Z,39.64
2017-04-06T13:17:42.909Z,39.18
2017-04-06T13:18:42.935Z,38.89
2017-04-06T13:19:42.958Z,39.16
2017-04-06T13:20:42.984Z,38.7
2017-04-06T13:21:43.013Z,38.1
2017-04-06T13:22:43.032Z,38.2
2017-04-06T13:23:43.058Z,38.1
2017-04-06T13:25:43.108Z,38.76
2017-04-06T13:26:43.131Z,38.47
2017-04-06T13:27:43.156Z,38.66
2017-04-06T13:28:57.796Z,39.5
2017-04-06T13:29:43.204Z,39.4
2017-04-06T13:30:43.225Z,39.5
2017-04-06T13:31:43.278Z,39.86
2017-04-06T13:33:43.310Z,39.98
2017-04-06T13:34:43.329Z,39.4
2017-04-06T13:35:43.362Z,39.33
2017-04-06T13:36:43.381Z,39.23
2017-04-06T13:37:43.099Z,38.87
2017-04-06T13:38:43.421Z,38.3
2017-04-06T13:40:43.471Z,38.2
2017-04-06T13:41:43.495Z,38.47
2017-04-06T13:42:43.520Z,38.09
2017-04-06T13:43:43.239Z,37.41
2017-04-06T13:44:58.183Z,38.64
2017-04-06T13:45:43.591Z,38.07
2017-04-06T13:46:43.616Z,38.93
2017-04-06T13:47:43.638Z,38.54
2017-04-06T13:48:43.662Z,38.35
2017-04-06T13:49:43.689Z,38.34
2017-04-06T13:50:44.012Z,38.35
2017-04-06T13:51:43.736Z,38.26
2017-04-06T13:52:43.766Z,37.78
2017-04-06T13:53:44.087Z,38.35
2017-04-06T13:54:43.812Z,38.53
2017-04-06T13:55:43.832Z,38.53
2017-04-06T13:56:43.863Z,39.4
2017-04-06T13:57:43.881Z,39.12
2017-04-06T13:58:43.927Z,39.31
2017-04-06T13:59:43.626Z,39.1